createdAt,value
2017-10-02T00:01:02.673Z,3.03
2017-10-02T00:03:30.994Z,3.10
2017-10-02T00:05:59.299Z,3.60
2017-10-02T00:08:27.565Z,3.37
2017-10-02T00:10:56.655Z,3.50
2017-10-02T00:13:24.930Z,2.83
2017-10-02T00:15:53.350Z,2.87
2017-10-02T00:18:21.643Z,2.97
2017-10-02T00:20:49.938Z,3.47
2017-10-02T00:23:18.220Z,3.30
2017-10-02T00:25:46.508Z,2.60
2017-10-02T00:28:14.805Z,2.90
2017-10-02T00:30:43.085Z,2.93
2017-10-02T00:33:12.167Z,2.80
2017-10-02T00:35:41.222Z,3.50
2017-10-02T00:38:10.278Z,2.50
2017-10-02T00:40:38.590Z,2.23
2017-10-02T00:43:06.906Z,2.57
2017-10-02T00:45:35.217Z,2.60
2017-10-02T00:48:03.530Z,2.73
2017-10-02T00:50:31.847Z,2.77
2017-10-02T00:53:00.921Z,2.53
2017-10-02T00:55:29.297Z,3.03
2017-10-02T00:57:57.662Z,2.30
2017-10-02T01:00:26.806Z,2.40
2017-10-02T01:02:55.190Z,2.77
2017-10-02T01:05:24.297Z,2.40
2017-10-02T01:07:52.672Z,2.60
2017-10-02T01:10:21.034Z,2.37
2017-10-02T01:12:50.124Z,2.10
2017-10-02T01:15:18.478Z,2.50
2017-10-02T01:17:46.801Z,1.93
2017-10-02T01:20:15.156Z,2.33
2017-10-02T01:22:43.516Z,2.40
2017-10-02T01:25:11.830Z,2.70
2017-10-02T01:27:40.291Z,2.77
2017-10-02T01:30:08.663Z,3.17
2017-10-02T01:32:36.947Z,3.00
2017-10-02T01:35:05.994Z,2.30
2017-10-02T01:37:35.374Z,2.60
2017-10-02T01:42:38.128Z,2.40
2017-10-02T01:45:06.433Z,2.97
2017-10-02T01:47:34.722Z,3.57
2017-10-02T01:50:03.010Z,2.80
2017-10-02T01:52:31.300Z,2.90
2017-10-02T01:54:59.609Z,3.10
2017-10-02T01:57:27.887Z,1.97
2017-10-02T01:59:56.205Z,2.73
2017-10-02T02:02:24.510Z,3.40
2017-10-02T02:04:52.796Z,2.47
2017-10-02T02:07:21.074Z,3.17
2017-10-02T02:09:50.146Z,2.50
2017-10-02T02:12:18.433Z,2.93
2017-10-02T02:14:46.750Z,2.90
2017-10-02T02:17:15.034Z,2.10
2017-10-02T02:19:43.346Z,3.43
2017-10-02T02:22:11.658Z,1.90
2017-10-02T02:24:39.949Z,2.63
2017-10-02T02:27:08.264Z,2.57
2017-10-02T02:29:36.546Z,2.40
2017-10-02T02:32:04.826Z,1.97
2017-10-02T02:34:33.874Z,3.60
2017-10-02T02:37:02.625Z,2.00
2017-10-02T02:39:30.941Z,2.13
2017-10-02T02:41:59.353Z,2.00
2017-10-02T02:44:28.406Z,1.87
2017-10-02T02:46:56.681Z,2.17
2017-10-02T02:49:24.990Z,1.50
2017-10-02T02:51:53.286Z,2.10
2017-10-02T02:54:22.362Z,1.70
2017-10-02T02:56:50.669Z,1.87
2017-10-02T02:59:18.961Z,2.10
2017-10-02T03:01:47.256Z,1.90
2017-10-02T03:04:15.563Z,2.20
2017-10-02T03:06:43.838Z,2.03
2017-10-02T03:09:12.126Z,2.50
2017-10-02T03:11:40.435Z,1.87
2017-10-02T03:14:08.746Z,2.07
2017-10-02T03:16:37.029Z,2.10
2017-10-02T03:19:05.451Z,2.03
2017-10-02T03:21:33.739Z,2.30
2017-10-02T03:24:02.213Z,3.03
2017-10-02T03:26:31.270Z,1.30
2017-10-02T03:28:59.552Z,2.00
2017-10-02T03:31:27.894Z,1.33
2017-10-02T03:33:56.179Z,2.03
2017-10-02T03:36:24.450Z,1.90
2017-10-02T03:38:53.495Z,2.03
2017-10-02T03:41:21.770Z,1.73
2017-10-02T03:43:50.846Z,1.57
2017-10-02T03:46:19.146Z,1.80
2017-10-02T03:48:47.458Z,2.10
2017-10-02T03:51:15.743Z,1.67
2017-10-02T03:53:44.042Z,1.83
2017-10-02T03:56:12.319Z,1.70
2017-10-02T03:58:40.618Z,2.20
2017-10-02T04:01:09.025Z,1.83
2017-10-02T04:03:37.306Z,2.47
2017-10-02T04:06:06.354Z,2.50
2017-10-02T04:08:34.684Z,2.17
2017-10-02T04:11:02.959Z,2.40
2017-10-02T04:13:31.265Z,2.30
2017-10-02T04:16:00.593Z,2.40
2017-10-02T04:18:28.909Z,2.17
2017-10-02T04:20:57.255Z,2.70
2017-10-02T04:23:26.306Z,2.33
2017-10-02T04:25:54.590Z,2.67
2017-10-02T04:28:22.870Z,2.67
2017-10-02T04:30:51.950Z,2.77
2017-10-02T04:33:20.263Z,3.10
2017-10-02T04:35:48.566Z,3.20
2017-10-02T04:38:16.993Z,3.00
2017-10-02T04:40:45.266Z,3.80
2017-10-02T04:43:14.324Z,3.23
2017-10-02T04:45:43.382Z,3.30
2017-10-02T04:48:11.669Z,3.73
2017-10-02T04:50:39.988Z,2.70
2017-10-02T04:53:08.287Z,2.73
2017-10-02T04:55:36.638Z,3.97
2017-10-02T04:58:04.922Z,3.90
2017-10-02T05:00:33.237Z,3.70
2017-10-02T05:03:01.550Z,2.73
2017-10-02T05:05:29.862Z,3.97
2017-10-02T05:07:58.941Z,3.57
2017-10-02T05:10:27.302Z,3.83
2017-10-02T05:12:55.714Z,3.40
2017-10-02T05:15:24.007Z,3.10
2017-10-02T05:17:52.340Z,3.67
2017-10-02T05:20:20.623Z,3.40
2017-10-02T05:22:48.940Z,2.97
2017-10-02T05:25:17.219Z,2.90
2017-10-02T05:27:45.494Z,3.10
2017-10-02T05:30:14.566Z,3.53
2017-10-02T05:32:42.850Z,3.20
2017-10-02T05:35:11.310Z,2.80
2017-10-02T05:37:39.594Z,2.60
2017-10-02T05:40:07.902Z,2.90
2017-10-02T05:42:36.222Z,2.97
2017-10-02T05:45:10.411Z,2.40
2017-10-02T05:47:38.701Z,2.77
2017-10-02T05:50:06.974Z,2.80
2017-10-02T05:52:36.031Z,2.93
2017-10-02T05:55:04.307Z,3.40
2017-10-02T05:57:32.591Z,3.20
2017-10-02T06:00:01.639Z,2.80
2017-10-02T06:02:29.922Z,2.43
2017-10-02T06:04:58.210Z,2.67
2017-10-02T06:07:27.280Z,3.07
2017-10-02T06:09:55.564Z,2.30
2017-10-02T06:12:23.846Z,3.17
2017-10-02T06:14:52.129Z,2.37
2017-10-02T06:17:21.183Z,2.10
2017-10-02T06:19:49.492Z,2.17
2017-10-02T06:22:17.781Z,2.30
2017-10-02T06:24:46.062Z,2.20
2017-10-02T06:27:15.106Z,2.07
2017-10-02T06:29:43.394Z,1.60
2017-10-02T06:32:11.685Z,2.03
2017-10-02T06:34:40.734Z,2.20
2017-10-02T06:37:09.037Z,1.40
2017-10-02T06:39:37.329Z,1.40
2017-10-02T06:42:05.601Z,1.93
2017-10-02T06:44:34.652Z,2.00
2017-10-02T06:47:03.715Z,1.47
2017-10-02T06:49:31.990Z,1.50
2017-10-02T06:52:00.287Z,1.00
2017-10-02T06:54:29.014Z,1.47
2017-10-02T06:56:57.327Z,1.43
2017-10-02T06:59:25.611Z,1.43
2017-10-02T07:01:53.898Z,1.10
2017-10-02T07:04:22.183Z,1.17
2017-10-02T07:06:50.476Z,0.80
2017-10-02T07:09:19.514Z,1.20
2017-10-02T07:11:47.808Z,1.30
2017-10-02T07:14:16.522Z,1.07
2017-10-02T07:16:44.816Z,0.97
2017-10-02T07:19:13.227Z,0.97
2017-10-02T07:21:41.510Z,0.70
2017-10-02T07:24:10.567Z,0.80
2017-10-02T07:26:38.847Z,0.60
2017-10-02T07:29:07.134Z,0.60
2017-10-02T07:31:36.182Z,0.70
2017-10-02T07:34:04.470Z,0.60
2017-10-02T07:36:32.789Z,0.70
2017-10-02T07:39:01.068Z,0.70
2017-10-02T07:41:29.344Z,0.60
2017-10-02T07:43:58.390Z,0.60
2017-10-02T07:46:26.715Z,0.60
2017-10-02T07:48:54.986Z,0.50
2017-10-02T07:51:23.275Z,0.87
2017-10-02T07:53:52.320Z,0.57
2017-10-02T07:56:20.598Z,0.57
2017-10-02T07:58:48.877Z,0.60
2017-10-02T08:01:17.166Z,0.80
2017-10-02T08:03:45.443Z,0.57
2017-10-02T08:06:13.751Z,0.67
2017-10-02T08:08:42.123Z,0.70
2017-10-02T08:11:11.158Z,0.80
2017-10-02T08:13:39.434Z,0.77
2017-10-02T08:16:08.473Z,0.60
2017-10-02T08:18:36.784Z,0.60
2017-10-02T08:21:05.070Z,0.63
2017-10-02T08:23:33.353Z,0.63
2017-10-02T08:26:02.514Z,0.70
2017-10-02T08:28:30.795Z,0.70
2017-10-02T08:30:59.078Z,0.73
2017-10-02T08:33:28.123Z,0.53
2017-10-02T08:35:56.402Z,0.60
2017-10-02T08:38:24.695Z,0.60
2017-10-02T08:40:53.746Z,0.60
2017-10-02T08:43:22.030Z,0.60
2017-10-02T08:45:50.309Z,0.60
2017-10-02T08:48:19.361Z,0.57
2017-10-02T08:50:47.658Z,0.50
2017-10-02T08:53:15.938Z,0.53
2017-10-02T08:55:44.990Z,0.50
2017-10-02T08:58:13.274Z,0.70
2017-10-02T09:00:41.687Z,0.90
2017-10-02T09:03:09.994Z,0.50
2017-10-02T09:05:38.261Z,0.70
2017-10-02T09:08:07.323Z,0.60
2017-10-02T09:10:35.606Z,0.60
2017-10-02T09:13:03.889Z,0.80
2017-10-02T09:15:32.937Z,0.80
2017-10-02T09:18:01.354Z,0.53
2017-10-02T09:20:29.629Z,0.50
2017-10-02T09:22:57.922Z,0.60
2017-10-02T09:25:26.205Z,0.60
2017-10-02T09:27:55.258Z,0.60
2017-10-02T09:30:23.542Z,0.70
2017-10-02T09:32:52.594Z,0.53
2017-10-02T09:35:20.898Z,1.10
2017-10-02T09:37:49.173Z,1.00
2017-10-02T09:40:17.453Z,0.90
2017-10-02T09:42:46.510Z,1.07
2017-10-02T09:45:14.795Z,1.30
2017-10-02T09:47:43.364Z,1.20
2017-10-02T09:50:11.654Z,1.27
2017-10-02T09:52:39.947Z,1.00
2017-10-02T09:55:08.234Z,0.90
2017-10-02T09:57:36.523Z,0.90
2017-10-02T10:00:04.837Z,0.80
2017-10-02T10:02:33.137Z,0.90
2017-10-02T10:05:01.434Z,0.90
2017-10-02T10:07:29.743Z,0.70
2017-10-02T10:09:58.045Z,0.77
2017-10-02T10:12:26.356Z,0.77
2017-10-02T10:14:54.633Z,0.70
2017-10-02T10:17:22.920Z,1.20
2017-10-02T10:19:51.223Z,0.93
2017-10-02T10:22:19.506Z,1.40
2017-10-02T10:24:48.573Z,1.07
2017-10-02T10:27:16.862Z,1.27
2017-10-02T10:29:45.208Z,1.50
2017-10-02T10:32:13.487Z,1.13
2017-10-02T10:34:41.795Z,1.20
2017-10-02T10:37:10.112Z,1.60
2017-10-02T10:39:38.402Z,1.70
2017-10-02T10:42:06.698Z,2.67
2017-10-02T10:44:34.992Z,1.67
2017-10-02T10:47:03.285Z,1.90
2017-10-02T10:49:31.582Z,2.00
2017-10-02T10:51:59.869Z,2.40
2017-10-02T10:54:28.146Z,2.13
2017-10-02T10:56:57.194Z,2.40
2017-10-02T10:59:25.489Z,2.63
2017-10-02T11:01:53.772Z,1.73
2017-10-02T11:04:22.809Z,1.90
2017-10-02T11:06:51.105Z,2.07
2017-10-02T11:09:19.407Z,1.80
2017-10-02T11:11:47.693Z,1.77
2017-10-02T11:14:16.766Z,1.50
2017-10-02T11:16:45.082Z,1.90
2017-10-02T11:19:13.364Z,1.97
2017-10-02T11:21:41.653Z,2.20
2017-10-02T11:24:09.935Z,2.30
2017-10-02T11:26:38.219Z,2.20
2017-10-02T11:29:07.292Z,2.40
2017-10-02T11:31:35.574Z,1.97
2017-10-02T11:34:03.889Z,2.23
2017-10-02T11:36:32.174Z,2.33
2017-10-02T11:39:00.458Z,2.40
2017-10-02T11:41:28.733Z,3.50
2017-10-02T11:43:57.817Z,3.60
2017-10-02T11:46:26.101Z,2.97
2017-10-02T11:48:55.155Z,3.47
2017-10-02T11:51:23.441Z,2.93
2017-10-02T11:53:51.725Z,3.53
2017-10-02T11:56:20.006Z,3.23
2017-10-02T11:58:48.300Z,3.00
2017-10-02T12:01:17.346Z,2.63
2017-10-02T12:03:45.621Z,3.07
2017-10-02T12:06:13.909Z,3.37
2017-10-02T12:08:42.953Z,3.53
2017-10-02T12:11:11.228Z,3.17
2017-10-02T12:13:40.282Z,3.90
2017-10-02T12:16:08.599Z,3.93
2017-10-02T12:18:36.891Z,4.00
2017-10-02T12:21:05.173Z,3.77
2017-10-02T12:23:33.471Z,4.37
2017-10-02T12:26:02.593Z,4.10
2017-10-02T12:28:30.888Z,4.20
2017-10-02T12:30:59.941Z,2.90
2017-10-02T12:33:28.349Z,3.10
2017-10-02T12:35:56.631Z,3.13
2017-10-02T12:38:24.926Z,3.33
2017-10-02T12:40:53.203Z,2.77
2017-10-02T12:43:22.249Z,2.93
2017-10-02T12:45:50.587Z,3.10
2017-10-02T12:48:18.870Z,3.13
2017-10-02T12:50:47.174Z,3.07
2017-10-02T12:53:15.466Z,2.50
2017-10-02T12:55:43.795Z,2.33
2017-10-02T12:58:12.072Z,2.63
2017-10-02T13:00:40.354Z,2.80
2017-10-02T13:03:08.661Z,2.83
2017-10-02T13:05:36.950Z,2.53
2017-10-02T13:08:06.004Z,2.97
2017-10-02T13:10:34.320Z,3.00
2017-10-02T13:13:02.597Z,3.70
2017-10-02T13:15:30.890Z,3.67
2017-10-02T13:17:59.161Z,4.50
2017-10-02T13:20:28.219Z,2.80
2017-10-02T13:22:56.506Z,3.40
2017-10-02T13:25:25.630Z,2.80
2017-10-02T13:27:53.908Z,4.17
2017-10-02T13:30:22.958Z,3.63
2017-10-02T13:32:51.278Z,4.17
2017-10-02T13:35:19.560Z,3.73
2017-10-02T13:37:47.862Z,4.40
2017-10-02T13:40:16.147Z,3.47
2017-10-02T13:42:45.193Z,3.27
2017-10-02T13:45:13.495Z,4.40
2017-10-02T13:47:41.770Z,3.50
2017-10-02T13:50:10.058Z,3.47
2017-10-02T13:52:39.123Z,3.60
2017-10-02T13:55:07.434Z,2.93
2017-10-02T13:57:35.723Z,2.60
2017-10-02T14:00:04.034Z,3.90
2017-10-02T14:02:32.549Z,3.70
2017-10-02T14:05:00.828Z,3.10
2017-10-02T14:07:29.118Z,4.37
2017-10-02T14:09:57.480Z,3.53
2017-10-02T14:12:25.751Z,3.70
2017-10-02T14:14:54.025Z,3.40
2017-10-02T14:17:22.307Z,4.13
2017-10-02T14:19:50.734Z,3.20
2017-10-02T14:22:19.022Z,3.23
2017-10-02T14:24:47.307Z,2.73
2017-10-02T14:27:16.354Z,4.03
2017-10-02T14:29:44.654Z,3.80
2017-10-02T14:32:12.941Z,3.20
2017-10-02T14:34:41.226Z,3.90
2017-10-02T14:37:10.312Z,3.63
2017-10-02T14:39:38.607Z,4.80
2017-10-02T14:42:06.901Z,4.23
2017-10-02T14:44:35.181Z,3.70
2017-10-02T14:47:03.471Z,4.07
2017-10-02T14:49:31.764Z,3.80
2017-10-02T14:52:00.817Z,4.57
2017-10-02T14:54:29.154Z,4.47
2017-10-02T14:56:57.447Z,4.43
2017-10-02T14:59:25.743Z,3.80
2017-10-02T15:01:54.038Z,4.13
2017-10-02T15:04:22.322Z,4.10
2017-10-02T15:06:50.639Z,4.60
2017-10-02T15:09:18.926Z,3.53
2017-10-02T15:11:47.221Z,4.60
2017-10-02T15:14:15.516Z,4.60
2017-10-02T15:16:43.799Z,4.03
2017-10-02T15:19:12.882Z,4.43
2017-10-02T15:21:41.169Z,4.27
2017-10-02T15:24:09.478Z,4.50
2017-10-02T15:26:37.777Z,4.33
2017-10-02T15:29:06.073Z,4.30
2017-10-02T15:31:34.415Z,4.20
2017-10-02T15:34:03.478Z,4.40
2017-10-02T15:36:34.982Z,4.00
2017-10-02T15:39:00.999Z,5.47
2017-10-02T15:41:29.295Z,4.20
2017-10-02T15:43:57.588Z,4.67
2017-10-02T15:46:25.896Z,5.60
2017-10-02T15:48:54.208Z,4.87
2017-10-02T15:51:22.503Z,5.13
2017-10-02T15:53:51.281Z,3.63
2017-10-02T15:56:20.346Z,4.70
2017-10-02T15:58:48.686Z,5.03
2017-10-02T16:01:16.977Z,5.00
2017-10-02T16:03:45.285Z,5.20
2017-10-02T16:06:13.608Z,5.20
2017-10-02T16:08:42.662Z,4.73
2017-10-02T16:11:11.015Z,5.83
2017-10-02T16:13:40.089Z,4.53
2017-10-02T16:16:08.463Z,5.43
2017-10-02T16:18:37.553Z,5.10
2017-10-02T16:21:05.847Z,5.73
2017-10-02T16:23:34.262Z,4.13
2017-10-02T16:26:02.590Z,5.40
2017-10-02T16:28:31.642Z,5.50
2017-10-02T16:30:59.974Z,4.60
2017-10-02T16:33:28.261Z,5.67
2017-10-02T16:35:56.588Z,4.80
2017-10-02T16:38:24.872Z,5.37
2017-10-02T16:40:53.167Z,5.80
2017-10-02T16:43:21.499Z,5.57
2017-10-02T16:45:49.779Z,5.77
2017-10-02T16:48:18.131Z,5.00
2017-10-02T16:50:46.427Z,5.63
2017-10-02T16:53:15.473Z,6.10
2017-10-02T16:55:43.780Z,4.57
2017-10-02T16:58:12.082Z,5.07
2017-10-02T17:00:40.409Z,5.10
2017-10-02T17:03:08.751Z,5.67
2017-10-02T17:05:37.830Z,6.30
2017-10-02T17:08:06.123Z,5.60
2017-10-02T17:10:34.438Z,6.17
2017-10-02T17:13:02.753Z,5.40
2017-10-02T17:15:31.041Z,6.73
2017-10-02T17:17:59.361Z,5.50
2017-10-02T17:20:27.690Z,5.10
2017-10-02T17:22:56.058Z,8.30
2017-10-02T17:25:25.126Z,6.73
2017-10-02T17:27:53.438Z,7.03
2017-10-02T17:30:21.806Z,5.80
2017-10-02T17:32:50.851Z,5.43
2017-10-02T17:35:19.191Z,5.93
2017-10-02T17:37:47.516Z,5.30
2017-10-02T17:40:15.802Z,5.87
2017-10-02T17:42:44.091Z,6.90
2017-10-02T17:45:12.471Z,5.93
2017-10-02T17:47:40.776Z,6.33
2017-10-02T17:50:09.106Z,6.10
2017-10-02T17:52:37.423Z,6.10
2017-10-02T17:55:05.743Z,6.47
2017-10-02T17:57:34.047Z,5.20
2017-10-02T18:00:03.670Z,7.07
2017-10-02T18:02:32.605Z,6.70
2017-10-02T18:05:01.000Z,5.63
2017-10-02T18:07:29.389Z,5.10
2017-10-02T18:09:57.686Z,5.13
2017-10-02T18:12:25.987Z,6.10
2017-10-02T18:14:54.325Z,6.43
2017-10-02T18:17:22.639Z,5.03
2017-10-02T18:19:50.933Z,5.87
2017-10-02T18:22:19.262Z,5.10
2017-10-02T18:24:47.554Z,5.00
2017-10-02T18:27:15.870Z,5.83
2017-10-02T18:29:44.166Z,5.97
2017-10-02T18:32:12.479Z,5.27
2017-10-02T18:34:40.807Z,5.63
2017-10-02T18:37:09.285Z,5.30
2017-10-02T18:39:37.715Z,6.10
2017-10-02T18:42:06.138Z,4.57
2017-10-02T18:44:34.558Z,6.43
2017-10-02T18:47:02.869Z,5.97
2017-10-02T18:49:31.295Z,6.37
2017-10-02T18:51:59.618Z,8.83
2017-10-02T18:54:27.910Z,5.60
2017-10-02T18:56:56.273Z,6.10
2017-10-02T18:59:24.579Z,6.17
2017-10-02T19:01:52.894Z,5.33
2017-10-02T19:04:21.193Z,6.93
2017-10-02T19:06:49.869Z,6.43
2017-10-02T19:09:18.965Z,6.80
2017-10-02T19:11:47.466Z,6.33
2017-10-02T19:14:15.865Z,5.03
2017-10-02T19:16:44.154Z,5.73
2017-10-02T19:19:12.487Z,7.40
2017-10-02T19:21:40.830Z,5.73
2017-10-02T19:24:09.191Z,5.13
2017-10-02T19:26:38.338Z,6.30
2017-10-02T19:29:06.934Z,5.93
2017-10-02T19:31:45.276Z,6.77
2017-10-02T19:34:42.845Z,5.70
2017-10-02T19:37:16.993Z,7.10
2017-10-02T19:40:02.360Z,5.23
2017-10-02T19:42:35.242Z,5.37
2017-10-02T19:48:15.276Z,5.50
2017-10-02T19:50:53.326Z,5.80
2017-10-02T19:53:27.229Z,7.40
2017-10-02T19:56:00.378Z,7.00
2017-10-02T19:58:29.572Z,6.00
2017-10-02T20:00:57.996Z,6.67
2017-10-02T20:03:26.422Z,7.00
2017-10-02T20:05:54.796Z,6.50
2017-10-02T20:08:23.261Z,6.63
2017-10-02T20:10:51.736Z,6.60
2017-10-02T20:13:20.820Z,6.70
2017-10-02T20:16:02.885Z,8.10
2017-10-02T20:18:32.076Z,7.50
2017-10-02T20:21:00.498Z,6.10
2017-10-02T20:23:28.963Z,6.27
2017-10-02T20:25:57.363Z,6.40
2017-10-02T20:28:25.928Z,5.60
2017-10-02T20:30:54.339Z,6.77
2017-10-02T20:33:22.671Z,6.50
2017-10-02T20:35:51.770Z,5.70
2017-10-02T20:38:20.094Z,5.33
2017-10-02T20:40:48.438Z,6.47
2017-10-02T20:43:16.747Z,8.47
2017-10-02T20:45:45.105Z,7.13
2017-10-02T20:48:13.510Z,8.43
2017-10-02T20:50:41.950Z,6.60
2017-10-02T20:53:10.555Z,6.77
2017-10-02T20:55:38.988Z,9.50
2017-10-02T20:58:08.181Z,6.10
2017-10-02T21:00:36.596Z,7.20
2017-10-02T21:03:04.992Z,7.77
2017-10-02T21:05:33.426Z,7.77
2017-10-02T21:08:02.547Z,7.60
2017-10-02T21:10:30.923Z,9.27
2017-10-02T21:12:59.374Z,8.80
2017-10-02T21:15:28.671Z,8.30
2017-10-02T21:17:57.156Z,8.07
2017-10-02T21:20:25.569Z,10.20
2017-10-02T21:22:53.933Z,7.93
2017-10-02T21:25:22.341Z,9.87
2017-10-02T21:27:50.730Z,10.10
2017-10-02T21:30:19.099Z,10.57
2017-10-02T21:32:47.486Z,10.37
2017-10-02T21:35:15.946Z,10.03
2017-10-02T21:37:44.344Z,9.33
2017-10-02T21:40:12.765Z,9.90
2017-10-02T21:42:41.185Z,8.97
2017-10-02T21:45:09.614Z,11.03
2017-10-02T21:47:38.048Z,9.63
2017-10-02T21:50:06.431Z,13.10
2017-10-02T21:52:34.835Z,10.57
2017-10-02T21:55:03.275Z,13.40
2017-10-02T21:57:31.630Z,10.50
2017-10-02T22:00:00.784Z,13.07
2017-10-02T22:02:29.336Z,11.77
2017-10-02T22:04:57.775Z,9.70
2017-10-02T22:07:27.826Z,9.90
2017-10-02T22:09:57.851Z,11.53
2017-10-02T22:12:26.279Z,9.67
2017-10-02T22:14:56.625Z,9.57
2017-10-02T22:17:25.169Z,10.47
2017-10-02T22:19:53.545Z,10.60
2017-10-02T22:22:22.878Z,10.70
2017-10-02T22:24:51.247Z,12.80
2017-10-02T22:27:19.771Z,14.03
2017-10-02T22:29:48.136Z,11.23
2017-10-02T22:32:16.573Z,10.83
2017-10-02T22:34:44.910Z,8.53
2017-10-02T22:37:13.265Z,9.80
2017-10-02T22:39:41.644Z,9.10
2017-10-02T22:42:10.034Z,9.03
2017-10-02T22:44:38.424Z,8.90
2017-10-02T22:47:06.916Z,7.97
2017-10-02T22:49:35.393Z,8.20
2017-10-02T22:52:03.759Z,5.87
2017-10-02T22:54:32.866Z,6.17
2017-10-02T22:57:01.240Z,6.13
2017-10-02T22:59:29.673Z,6.07
2017-10-02T23:01:58.078Z,7.03
2017-10-02T23:04:26.457Z,5.27
2017-10-02T23:06:55.675Z,6.00
2017-10-02T23:09:24.123Z,6.80
2017-10-02T23:11:52.499Z,5.47
2017-10-02T23:14:20.882Z,5.97
2017-10-02T23:16:51.982Z,5.70
2017-10-02T23:19:20.374Z,5.13
2017-10-02T23:21:48.723Z,4.73
2017-10-02T23:24:17.134Z,4.90
2017-10-02T23:26:45.515Z,5.13
2017-10-02T23:29:13.934Z,6.50
2017-10-02T23:31:43.264Z,5.90
2017-10-02T23:34:11.723Z,6.87
2017-10-02T23:36:40.932Z,5.47
2017-10-02T23:39:10.042Z,4.03
2017-10-02T23:41:38.422Z,4.87
2017-10-02T23:44:06.799Z,4.27
2017-10-02T23:46:35.228Z,4.90
2017-10-02T23:49:03.615Z,3.43
2017-10-02T23:51:31.985Z,4.40
2017-10-02T23:54:00.415Z,4.87
2017-10-02T23:56:28.899Z,5.20
2017-10-02T23:58:57.328Z,4.10
